createdAt,value
2016-11-20T00:00:48.002Z,0
2016-11-20T00:01:47.940Z,0
2016-11-20T00:02:47.877Z,0
2016-11-20T00:03:47.824Z,0
2016-11-20T00:04:47.762Z,0
2016-11-20T00:05:47.723Z,0
2016-11-20T00:06:47.640Z,0
2016-11-20T00:07:47.573Z,0
2016-11-20T00:08:47.511Z,0
2016-11-20T00:09:47.771Z,0
2016-11-20T00:10:47.385Z,0
2016-11-20T00:11:47.326Z,0
2016-11-20T00:12:47.260Z,0
2016-11-20T00:13:47.202Z,0
2016-11-20T00:14:47.133Z,0
2016-11-20T00:15:47.087Z,0
2016-11-20T00:16:47.021Z,0
2016-11-20T00:17:46.954Z,0
2016-11-20T00:18:46.892Z,0
2016-11-20T00:19:46.832Z,0
2016-11-20T00:20:46.777Z,0
2016-11-20T00:21:46.705Z,0
2016-11-20T00:22:46.644Z,0
2016-11-20T00:23:46.910Z,0
2016-11-20T00:24:46.520Z,0
2016-11-20T00:25:46.464Z,0
2016-11-20T00:26:46.398Z,0
2016-11-20T00:27:46.333Z,0
2016-11-20T00:28:46.273Z,0
2016-11-20T00:29:46.209Z,0
2016-11-20T00:30:46.157Z,0
2016-11-20T00:31:46.087Z,0
2016-11-20T00:32:46.017Z,0
2016-11-20T00:33:45.967Z,0
2016-11-20T00:34:45.908Z,0
2016-11-20T00:35:45.837Z,0
2016-11-20T00:36:45.776Z,0
2016-11-20T00:37:45.715Z,0
2016-11-20T00:38:45.684Z,0
2016-11-20T00:39:45.589Z,0
2016-11-20T00:40:45.530Z,0
2016-11-20T00:41:45.482Z,0
2016-11-20T00:42:45.403Z,0
2016-11-20T00:43:45.693Z,0
2016-11-20T00:44:45.281Z,0
2016-11-20T00:45:45.216Z,0
2016-11-20T00:46:45.167Z,0
2016-11-20T00:47:45.096Z,0
2016-11-20T00:48:45.032Z,0
2016-11-20T00:49:44.979Z,0
2016-11-20T00:50:44.939Z,0
2016-11-20T00:51:44.848Z,0
2016-11-20T00:52:44.801Z,0
2016-11-20T00:53:44.724Z,0
2016-11-20T00:54:44.662Z,0
2016-11-20T00:55:44.601Z,0
2016-11-20T00:56:44.571Z,0
2016-11-20T00:57:44.478Z,0
2016-11-20T00:58:44.411Z,0
2016-11-20T00:59:44.359Z,0
2016-11-20T01:00:44.293Z,0
2016-11-20T01:01:44.232Z,0
2016-11-20T01:02:44.167Z,0
2016-11-20T01:03:44.106Z,0
2016-11-20T01:04:44.042Z,0
2016-11-20T01:05:43.979Z,0
2016-11-20T01:06:43.919Z,0
2016-11-20T01:07:43.857Z,0
2016-11-20T01:08:43.796Z,0
2016-11-20T01:09:43.734Z,0
2016-11-20T01:10:43.668Z,0
2016-11-20T01:11:43.610Z,0
2016-11-20T01:12:43.548Z,0
2016-11-20T01:13:43.486Z,0
2016-11-20T01:14:43.420Z,0
2016-11-20T01:15:43.365Z,0
2016-11-20T01:16:43.302Z,0
2016-11-20T01:17:43.240Z,0
2016-11-20T01:18:43.178Z,0
2016-11-20T01:19:43.126Z,0
2016-11-20T01:20:43.053Z,0
2016-11-20T01:21:42.985Z,0
2016-11-20T01:22:42.927Z,0
2016-11-20T01:23:42.868Z,0
2016-11-20T01:24:42.805Z,0
2016-11-20T01:25:42.747Z,0
2016-11-20T01:26:42.706Z,0
2016-11-20T01:27:42.618Z,0
2016-11-20T01:28:42.555Z,0
2016-11-20T01:29:42.504Z,0
2016-11-20T01:30:42.435Z,0
2016-11-20T01:31:42.370Z,0
2016-11-20T01:32:42.308Z,0
2016-11-20T01:33:42.244Z,0
2016-11-20T01:34:42.185Z,0
2016-11-20T01:35:42.126Z,0
2016-11-20T01:36:42.063Z,0
2016-11-20T01:37:42.000Z,0
2016-11-20T01:38:41.975Z,0
2016-11-20T01:39:41.876Z,0
2016-11-20T01:40:41.816Z,0
2016-11-20T01:41:41.781Z,0
2016-11-20T01:42:41.692Z,0
2016-11-20T01:43:41.952Z,0
2016-11-20T01:44:41.570Z,0
2016-11-20T01:45:41.696Z,0
2016-11-20T01:46:41.445Z,0
2016-11-20T01:47:41.401Z,0
2016-11-20T01:48:41.321Z,0
2016-11-20T01:49:41.256Z,0
2016-11-20T01:50:41.195Z,0
2016-11-20T01:51:41.136Z,0
2016-11-20T01:52:41.073Z,0
2016-11-20T01:53:41.020Z,0
2016-11-20T01:54:40.948Z,0
2016-11-20T01:55:40.895Z,0
2016-11-20T01:56:40.830Z,0
2016-11-20T01:57:40.763Z,0
2016-11-20T01:58:40.737Z,0
2016-11-20T01:59:40.642Z,0
2016-11-20T02:00:40.576Z,0
2016-11-20T02:01:40.545Z,0
2016-11-20T02:02:40.456Z,0
2016-11-20T02:03:40.394Z,0
2016-11-20T02:04:40.333Z,0
2016-11-20T02:05:40.272Z,0
2016-11-20T02:06:40.208Z,0
2016-11-20T02:07:40.143Z,0
2016-11-20T02:08:40.082Z,0
2016-11-20T02:09:40.709Z,0
2016-11-20T02:10:39.966Z,0
2016-11-20T02:11:39.897Z,0
2016-11-20T02:12:39.837Z,0
2016-11-20T02:13:39.776Z,0
2016-11-20T02:14:39.716Z,0
2016-11-20T02:15:39.645Z,0
2016-11-20T02:16:39.586Z,0
2016-11-20T02:17:39.550Z,0
2016-11-20T02:18:39.664Z,0
2016-11-20T02:19:39.627Z,0
2016-11-20T02:20:39.345Z,0
2016-11-20T02:21:39.283Z,0
2016-11-20T02:22:39.224Z,0
2016-11-20T02:23:39.157Z,0
2016-11-20T02:24:39.089Z,0
2016-11-20T02:25:39.029Z,0
2016-11-20T02:26:38.966Z,0
2016-11-20T02:27:39.268Z,0
2016-11-20T02:28:38.844Z,0
2016-11-20T02:29:38.780Z,0
2016-11-20T02:30:38.716Z,0
2016-11-20T02:31:38.658Z,0
2016-11-20T02:32:38.598Z,0
2016-11-20T02:33:38.852Z,0
2016-11-20T02:34:38.475Z,0
2016-11-20T02:35:38.416Z,0
2016-11-20T02:36:38.353Z,0
2016-11-20T02:37:38.286Z,0
2016-11-20T02:38:38.228Z,0
2016-11-20T02:39:38.169Z,0
2016-11-20T02:40:38.105Z,0
2016-11-20T02:41:38.041Z,0
2016-11-20T02:42:37.977Z,0
2016-11-20T02:43:37.917Z,0
2016-11-20T02:44:37.851Z,0
2016-11-20T02:45:37.796Z,0
2016-11-20T02:46:37.731Z,0
2016-11-20T02:47:37.679Z,0
2016-11-20T02:48:37.606Z,0
2016-11-20T02:49:37.544Z,0
2016-11-20T02:50:37.481Z,0
2016-11-20T02:51:37.423Z,0
2016-11-20T02:52:37.565Z,0
2016-11-20T02:53:37.524Z,0
2016-11-20T02:54:37.241Z,0
2016-11-20T02:55:37.188Z,0
2016-11-20T02:56:37.122Z,0
2016-11-20T02:57:37.060Z,0
2016-11-20T02:58:37.513Z,0
2016-11-20T02:59:36.941Z,0
2016-11-20T03:00:37.188Z,0
2016-11-20T03:01:36.809Z,0
2016-11-20T03:02:36.743Z,0
2016-11-20T03:03:36.719Z,0
2016-11-20T03:04:36.618Z,0
2016-11-20T03:05:36.556Z,0
2016-11-20T03:06:36.492Z,0
2016-11-20T03:07:36.434Z,0
2016-11-20T03:08:36.365Z,0
2016-11-20T03:09:36.311Z,0
2016-11-20T03:10:36.246Z,0
2016-11-20T03:11:36.187Z,0
2016-11-20T03:12:36.154Z,0
2016-11-20T03:13:36.063Z,0
2016-11-20T03:14:36.000Z,0
2016-11-20T03:15:35.938Z,0
2016-11-20T03:16:35.879Z,0
2016-11-20T03:17:35.815Z,0
2016-11-20T03:18:35.752Z,0
2016-11-20T03:19:35.690Z,0
2016-11-20T03:20:35.629Z,0
2016-11-20T03:21:35.568Z,0
2016-11-20T03:22:35.538Z,0
2016-11-20T03:23:35.445Z,0
2016-11-20T03:24:35.380Z,0
2016-11-20T03:25:35.317Z,0
2016-11-20T03:26:35.465Z,0
2016-11-20T03:27:35.198Z,0
2016-11-20T03:28:35.128Z,0
2016-11-20T03:29:35.070Z,0
2016-11-20T03:30:35.008Z,0
2016-11-20T03:31:34.948Z,0
2016-11-20T03:32:34.885Z,0
2016-11-20T03:33:34.826Z,0
2016-11-20T03:34:34.760Z,0
2016-11-20T03:35:34.703Z,0
2016-11-20T03:36:34.665Z,0
2016-11-20T03:37:34.571Z,0
2016-11-20T03:38:34.517Z,0
2016-11-20T03:39:34.456Z,0
2016-11-20T03:40:34.390Z,0
2016-11-20T03:41:34.327Z,0
2016-11-20T03:42:34.585Z,0
2016-11-20T03:43:34.202Z,0
2016-11-20T03:44:34.147Z,0
2016-11-20T03:45:34.078Z,0
2016-11-20T03:46:34.020Z,0
2016-11-20T03:47:33.957Z,0
2016-11-20T03:48:33.892Z,0
2016-11-20T03:49:33.828Z,0
2016-11-20T03:50:33.774Z,0
2016-11-20T03:51:33.710Z,0
2016-11-20T03:52:33.643Z,0
2016-11-20T03:53:33.579Z,0
2016-11-20T03:54:33.521Z,0
2016-11-20T03:55:33.665Z,0
2016-11-20T03:56:33.396Z,0
2016-11-20T03:57:33.334Z,0
2016-11-20T03:58:33.277Z,0
2016-11-20T03:59:33.239Z,0
2016-11-20T04:00:33.149Z,0
2016-11-20T04:01:33.087Z,0
2016-11-20T04:02:33.031Z,0
2016-11-20T04:03:32.965Z,0
2016-11-20T04:04:32.901Z,0
2016-11-20T04:05:32.841Z,0
2016-11-20T04:06:32.774Z,0
2016-11-20T04:07:32.718Z,0
2016-11-20T04:08:32.651Z,0
2016-11-20T04:09:32.589Z,0
2016-11-20T04:10:32.529Z,0
2016-11-20T04:11:32.474Z,0
2016-11-20T04:12:32.409Z,0
2016-11-20T04:13:32.369Z,0
2016-11-20T04:14:32.287Z,0
2016-11-20T04:15:32.218Z,0
2016-11-20T04:16:32.161Z,0
2016-11-20T04:17:32.097Z,0
2016-11-20T04:18:32.036Z,0
2016-11-20T04:19:31.974Z,0
2016-11-20T04:20:31.940Z,0
2016-11-20T04:21:31.846Z,0
2016-11-20T04:22:31.785Z,0
2016-11-20T04:23:32.046Z,0
2016-11-20T04:24:31.659Z,0
2016-11-20T04:25:31.596Z,0
2016-11-20T04:26:31.538Z,0
2016-11-20T04:27:31.474Z,0
2016-11-20T04:28:31.420Z,0
2016-11-20T04:29:31.347Z,0
2016-11-20T04:30:31.292Z,0
2016-11-20T04:31:31.232Z,0
2016-11-20T04:32:31.483Z,0
2016-11-20T04:33:31.114Z,0
2016-11-20T04:34:31.047Z,0
2016-11-20T04:35:30.977Z,0
2016-11-20T04:36:30.932Z,0
2016-11-20T04:37:30.852Z,0
2016-11-20T04:38:30.792Z,0
2016-11-20T04:39:30.734Z,0
2016-11-20T04:40:30.666Z,0
2016-11-20T04:41:30.607Z,0
2016-11-20T04:42:30.545Z,0
2016-11-20T04:43:30.807Z,0
2016-11-20T04:44:30.416Z,0
2016-11-20T04:45:30.355Z,0
2016-11-20T04:46:30.614Z,0
2016-11-20T04:47:30.243Z,0
2016-11-20T04:48:30.170Z,0
2016-11-20T04:49:30.112Z,0
2016-11-20T04:50:30.061Z,0
2016-11-20T04:51:29.987Z,0
2016-11-20T04:52:29.931Z,0
2016-11-20T04:53:29.858Z,0
2016-11-20T04:54:29.801Z,0
2016-11-20T04:55:29.742Z,0
2016-11-20T04:56:29.676Z,0
2016-11-20T04:57:29.618Z,0
2016-11-20T04:58:29.554Z,0
2016-11-20T04:59:29.491Z,0
2016-11-20T05:00:29.469Z,0
2016-11-20T05:01:29.369Z,0
2016-11-20T05:02:29.308Z,0
2016-11-20T05:03:29.242Z,0
2016-11-20T05:04:29.179Z,0
2016-11-20T05:05:29.152Z,0
2016-11-20T05:06:29.051Z,0
2016-11-20T05:07:28.994Z,0
2016-11-20T05:08:28.930Z,0
2016-11-20T05:09:28.868Z,0
2016-11-20T05:10:28.802Z,0
2016-11-20T05:11:28.749Z,0
2016-11-20T05:12:28.689Z,0
2016-11-20T05:13:28.629Z,0
2016-11-20T05:14:28.563Z,0
2016-11-20T05:15:28.497Z,0
2016-11-20T05:16:28.435Z,0
2016-11-20T05:17:28.378Z,0
2016-11-20T05:18:28.315Z,0
2016-11-20T05:19:28.247Z,0
2016-11-20T05:20:28.185Z,0
2016-11-20T05:21:28.134Z,0
2016-11-20T05:22:28.059Z,0
2016-11-20T05:23:28.003Z,0
2016-11-20T05:24:27.941Z,0
2016-11-20T05:25:27.875Z,0
2016-11-20T05:26:27.814Z,0
2016-11-20T05:27:27.755Z,0
2016-11-20T05:28:27.689Z,0
2016-11-20T05:29:27.949Z,0
2016-11-20T05:30:27.568Z,0
2016-11-20T05:31:27.508Z,0
2016-11-20T05:32:27.445Z,0
2016-11-20T05:33:27.382Z,0
2016-11-20T05:34:27.321Z,0
2016-11-20T05:35:27.257Z,0
2016-11-20T05:36:27.197Z,0
2016-11-20T05:37:27.134Z,0
2016-11-20T05:38:27.406Z,0
2016-11-20T05:39:27.010Z,0
2016-11-20T05:40:26.949Z,0
2016-11-20T05:41:26.904Z,0
2016-11-20T05:42:26.824Z,0
2016-11-20T05:43:26.762Z,0
2016-11-20T05:44:26.702Z,0
2016-11-20T05:45:26.634Z,0
2016-11-20T05:46:26.578Z,0
2016-11-20T05:47:26.513Z,0
2016-11-20T05:48:26.446Z,0
2016-11-20T05:49:26.390Z,0
2016-11-20T05:50:26.325Z,0
2016-11-20T05:51:26.260Z,0
2016-11-20T05:52:26.200Z,0
2016-11-20T05:53:26.138Z,0
2016-11-20T05:54:26.076Z,0
2016-11-20T05:55:26.013Z,0
2016-11-20T05:56:25.953Z,0
2016-11-20T05:57:25.887Z,0
2016-11-20T05:58:25.831Z,0
2016-11-20T05:59:25.775Z,0
2016-11-20T06:00:25.704Z,0
2016-11-20T06:01:25.969Z,0
2016-11-20T06:02:25.583Z,0
2016-11-20T06:03:25.517Z,0
2016-11-20T06:04:25.461Z,0
2016-11-20T06:05:25.398Z,0
2016-11-20T06:06:25.333Z,0
2016-11-20T06:07:25.272Z,0
2016-11-20T06:08:25.216Z,0
2016-11-20T06:09:25.151Z,0
2016-11-20T06:10:25.089Z,0
2016-11-20T06:11:25.028Z,0
2016-11-20T06:12:24.965Z,0
2016-11-20T06:13:24.907Z,4
2016-11-20T06:14:24.839Z,4
2016-11-20T06:15:24.779Z,4
2016-11-20T06:16:24.722Z,4
2016-11-20T06:17:24.654Z,4
2016-11-20T06:18:24.595Z,4
2016-11-20T06:19:24.527Z,4
2016-11-20T06:20:24.471Z,4
2016-11-20T06:21:24.411Z,4
2016-11-20T06:22:24.340Z,4
2016-11-20T06:23:24.285Z,4
2016-11-20T06:24:24.216Z,4
2016-11-20T06:25:24.161Z,4
2016-11-20T06:26:24.099Z,4
2016-11-20T06:27:24.033Z,4
2016-11-20T06:28:23.972Z,4
2016-11-20T06:29:23.908Z,4
2016-11-20T06:30:23.858Z,4
2016-11-20T06:31:23.787Z,4
2016-11-20T06:32:23.726Z,4
2016-11-20T06:33:23.662Z,4
2016-11-20T06:34:24.248Z,4
2016-11-20T06:35:23.545Z,4
2016-11-20T06:36:23.476Z,4
2016-11-20T06:37:23.415Z,4
2016-11-20T06:38:23.353Z,4
2016-11-20T06:39:23.296Z,4
2016-11-20T06:40:23.535Z,4
2016-11-20T06:41:23.164Z,4
2016-11-20T06:42:23.104Z,4
2016-11-20T06:43:23.044Z,4
2016-11-20T06:44:22.984Z,4
2016-11-20T06:45:22.925Z,4
2016-11-20T06:46:22.862Z,4
2016-11-20T06:47:22.800Z,4
2016-11-20T06:48:22.735Z,4
2016-11-20T06:49:23.008Z,4
2016-11-20T06:50:22.616Z,4
2016-11-20T06:51:22.548Z,4
2016-11-20T06:52:22.493Z,4
2016-11-20T06:53:22.425Z,4
2016-11-20T06:54:22.375Z,4
2016-11-20T06:55:22.301Z,8
2016-11-20T06:56:22.237Z,8
2016-11-20T06:57:22.175Z,8
2016-11-20T06:58:22.118Z,4
2016-11-20T06:59:22.054Z,4
2016-11-20T07:00:21.988Z,4
2016-11-20T07:01:21.928Z,4
2016-11-20T07:02:21.871Z,4
2016-11-20T07:03:21.807Z,4
2016-11-20T07:04:21.774Z,4
2016-11-20T07:05:21.677Z,4
2016-11-20T07:06:21.621Z,4
2016-11-20T07:07:21.552Z,4
2016-11-20T07:08:21.815Z,8
2016-11-20T07:09:21.436Z,8
2016-11-20T07:10:21.370Z,8
2016-11-20T07:11:21.513Z,8
2016-11-20T07:12:21.244Z,8
2016-11-20T07:13:21.187Z,8
2016-11-20T07:14:21.119Z,8
2016-11-20T07:15:21.387Z,8
2016-11-20T07:16:20.999Z,8
2016-11-20T07:17:21.145Z,8
2016-11-20T07:18:20.872Z,8
2016-11-20T07:19:20.813Z,8
2016-11-20T07:20:20.749Z,8
2016-11-20T07:21:20.698Z,8
2016-11-20T07:22:20.628Z,8
2016-11-20T07:23:20.569Z,8
2016-11-20T07:24:20.509Z,8
2016-11-20T07:25:20.448Z,12
2016-11-20T07:26:20.377Z,8
2016-11-20T07:27:20.319Z,12
2016-11-20T07:28:20.256Z,12
2016-11-20T07:29:20.205Z,12
2016-11-20T07:30:20.137Z,12
2016-11-20T07:31:20.068Z,8
2016-11-20T07:32:20.009Z,8
2016-11-20T07:33:19.946Z,8
2016-11-20T07:34:19.880Z,12
2016-11-20T07:35:19.822Z,12
2016-11-20T07:36:19.760Z,12
2016-11-20T07:37:19.708Z,12
2016-11-20T07:38:19.636Z,12
2016-11-20T07:39:19.606Z,12
2016-11-20T07:40:19.512Z,8
2016-11-20T07:41:19.448Z,12
2016-11-20T07:42:19.385Z,8
2016-11-20T07:43:19.339Z,8
2016-11-20T07:44:19.264Z,12
2016-11-20T07:45:19.209Z,12
2016-11-20T07:46:19.463Z,12
2016-11-20T07:47:19.081Z,16
2016-11-20T07:48:19.015Z,12
2016-11-20T07:49:18.958Z,12
2016-11-20T07:50:18.891Z,12
2016-11-20T07:51:18.828Z,12
2016-11-20T07:52:18.795Z,12
2016-11-20T07:53:18.709Z,16
2016-11-20T07:54:18.640Z,16
2016-11-20T07:55:18.586Z,16
2016-11-20T07:56:18.525Z,16
2016-11-20T07:57:18.458Z,16
2016-11-20T07:58:18.398Z,16
2016-11-20T07:59:18.333Z,16
2016-11-20T08:00:18.277Z,16
2016-11-20T08:01:18.204Z,12
2016-11-20T08:02:18.149Z,12
2016-11-20T08:03:18.088Z,16
2016-11-20T08:04:18.024Z,16
2016-11-20T08:05:17.960Z,12
2016-11-20T08:06:17.898Z,12
2016-11-20T08:07:17.840Z,12
2016-11-20T08:08:17.779Z,12
2016-11-20T08:09:17.711Z,12
2016-11-20T08:10:17.651Z,12
2016-11-20T08:11:17.615Z,12
2016-11-20T08:12:17.525Z,12
2016-11-20T08:13:17.463Z,16
2016-11-20T08:14:17.403Z,16
2016-11-20T08:15:17.340Z,16
2016-11-20T08:16:17.280Z,16
2016-11-20T08:17:17.217Z,16
2016-11-20T08:18:17.155Z,16
2016-11-20T08:19:17.093Z,16
2016-11-20T08:20:17.029Z,16
2016-11-20T08:21:16.964Z,16
2016-11-20T08:22:16.902Z,16
2016-11-20T08:23:16.839Z,12
2016-11-20T08:24:16.780Z,16
2016-11-20T08:25:16.715Z,16
2016-11-20T08:26:16.663Z,16
2016-11-20T08:27:16.604Z,16
2016-11-20T08:28:16.531Z,16
2016-11-20T08:29:16.467Z,16
2016-11-20T08:30:16.406Z,16
2016-11-20T08:31:16.343Z,16
2016-11-20T08:32:16.287Z,16
2016-11-20T08:33:16.221Z,16
2016-11-20T08:34:16.158Z,16
2016-11-20T08:35:16.107Z,16
2016-11-20T08:36:16.044Z,16
2016-11-20T08:37:15.977Z,16
2016-11-20T08:38:15.905Z,16
2016-11-20T08:39:15.848Z,16
2016-11-20T08:40:15.786Z,16
2016-11-20T08:41:15.722Z,16
2016-11-20T08:42:15.666Z,16
2016-11-20T08:43:15.597Z,16
2016-11-20T08:44:15.538Z,16
2016-11-20T08:45:15.478Z,16
2016-11-20T08:46:15.415Z,16
2016-11-20T08:47:15.353Z,16
2016-11-20T08:48:15.609Z,16
2016-11-20T08:49:15.230Z,16
2016-11-20T08:50:15.168Z,16
2016-11-20T08:51:15.104Z,16
2016-11-20T08:52:15.044Z,16
2016-11-20T08:53:14.978Z,16
2016-11-20T08:54:14.916Z,12
2016-11-20T08:55:14.857Z,12
2016-11-20T08:56:14.793Z,8
2016-11-20T08:57:14.733Z,8
2016-11-20T08:58:14.668Z,8
2016-11-20T08:59:14.605Z,8
2016-11-20T09:00:14.550Z,8
2016-11-20T09:01:14.481Z,8
2016-11-20T09:02:14.421Z,8
2016-11-20T09:03:14.361Z,12
2016-11-20T09:04:14.297Z,12
2016-11-20T09:05:14.236Z,12
2016-11-20T09:06:14.170Z,16
2016-11-20T09:07:14.119Z,16
2016-11-20T09:08:14.046Z,12
2016-11-20T09:09:13.988Z,16
2016-11-20T09:10:13.927Z,20
2016-11-20T09:11:13.883Z,16
2016-11-20T09:12:13.808Z,20
2016-11-20T09:13:13.740Z,20
2016-11-20T09:14:13.683Z,20
2016-11-20T09:15:13.618Z,20
2016-11-20T09:16:13.561Z,20
2016-11-20T09:17:13.501Z,20
2016-11-20T09:18:13.438Z,24
2016-11-20T09:19:13.374Z,24
2016-11-20T09:20:13.304Z,24
2016-11-20T09:21:13.239Z,24
2016-11-20T09:22:13.188Z,24
2016-11-20T09:23:13.122Z,24
2016-11-20T09:24:13.059Z,24
2016-11-20T09:25:13.018Z,24
2016-11-20T09:26:12.935Z,24
2016-11-20T09:27:12.868Z,24
2016-11-20T09:28:12.809Z,20
2016-11-20T09:29:12.747Z,24
2016-11-20T09:30:12.687Z,24
2016-11-20T09:31:12.625Z,20
2016-11-20T09:32:12.564Z,20
2016-11-20T09:33:12.498Z,20
2016-11-20T09:34:12.440Z,20
2016-11-20T09:35:12.375Z,16
2016-11-20T09:36:12.311Z,12
2016-11-20T09:37:12.250Z,16
2016-11-20T09:38:12.198Z,12
2016-11-20T09:39:12.129Z,16
2016-11-20T09:40:12.062Z,16
2016-11-20T09:41:12.005Z,20
2016-11-20T09:42:11.947Z,20
2016-11-20T09:43:11.877Z,20
2016-11-20T09:44:11.813Z,20
2016-11-20T09:45:11.960Z,24
2016-11-20T09:46:11.689Z,20
2016-11-20T09:47:11.625Z,20
2016-11-20T09:48:11.568Z,24
2016-11-20T09:49:11.511Z,20
2016-11-20T09:50:11.451Z,20
2016-11-20T09:51:11.387Z,24
2016-11-20T09:52:11.319Z,24
2016-11-20T09:53:11.261Z,28
2016-11-20T09:54:11.203Z,28
2016-11-20T09:55:11.136Z,24
2016-11-20T09:56:11.083Z,24
2016-11-20T09:57:11.011Z,28
2016-11-20T09:58:10.954Z,28
2016-11-20T09:59:10.888Z,24
2016-11-20T10:00:10.824Z,32
2016-11-20T10:01:10.765Z,28
2016-11-20T10:02:10.698Z,28
2016-11-20T10:03:10.640Z,24
2016-11-20T10:04:10.573Z,24
2016-11-20T10:05:10.513Z,20
2016-11-20T10:06:10.452Z,20
2016-11-20T10:07:10.389Z,20
2016-11-20T10:08:10.650Z,16
2016-11-20T10:09:10.264Z,16
2016-11-20T10:10:10.204Z,16
2016-11-20T10:11:10.141Z,20
2016-11-20T10:12:10.082Z,16
2016-11-20T10:13:10.023Z,20
2016-11-20T10:14:09.962Z,20
2016-11-20T10:15:09.893Z,20
2016-11-20T10:16:09.829Z,16
2016-11-20T10:17:09.768Z,20
2016-11-20T10:18:09.702Z,20
2016-11-20T10:19:09.655Z,16
2016-11-20T10:20:09.588Z,16
2016-11-20T10:21:09.519Z,16
2016-11-20T10:22:09.787Z,16
2016-11-20T10:23:09.393Z,16
2016-11-20T10:24:09.340Z,16
2016-11-20T10:25:09.273Z,16
2016-11-20T10:26:09.211Z,16
2016-11-20T10:27:09.157Z,16
2016-11-20T10:28:09.090Z,20
2016-11-20T10:29:09.027Z,24
2016-11-20T10:30:08.966Z,24
2016-11-20T10:31:09.219Z,24
2016-11-20T10:32:08.844Z,24
2016-11-20T10:33:08.781Z,24
2016-11-20T10:34:08.711Z,24
2016-11-20T10:35:08.651Z,20
2016-11-20T10:36:08.605Z,20
2016-11-20T10:37:08.527Z,24
2016-11-20T10:38:08.468Z,24
2016-11-20T10:39:08.401Z,20
2016-11-20T10:40:08.343Z,20
2016-11-20T10:41:08.281Z,20
2016-11-20T10:42:08.226Z,20
2016-11-20T10:43:08.158Z,16
2016-11-20T10:44:08.095Z,16
2016-11-20T10:45:08.029Z,16
2016-11-20T10:46:07.969Z,20
2016-11-20T10:47:07.906Z,16
2016-11-20T10:48:07.850Z,20
2016-11-20T10:49:07.806Z,16
2016-11-20T10:50:07.721Z,20
2016-11-20T10:51:07.657Z,20
2016-11-20T10:52:07.594Z,20
2016-11-20T10:53:07.539Z,20
2016-11-20T10:54:07.473Z,24
2016-11-20T10:55:07.411Z,24
2016-11-20T10:56:07.343Z,24
2016-11-20T10:57:07.281Z,28
2016-11-20T10:58:07.226Z,28
2016-11-20T10:59:07.509Z,28
2016-11-20T11:00:07.424Z,28
2016-11-20T11:01:07.035Z,28
2016-11-20T11:02:06.974Z,32
2016-11-20T11:03:06.918Z,24
2016-11-20T11:04:06.851Z,28
2016-11-20T11:05:06.792Z,32
2016-11-20T11:06:06.734Z,32
2016-11-20T11:07:06.669Z,32
2016-11-20T11:08:06.609Z,24
2016-11-20T11:09:06.542Z,24
2016-11-20T11:10:06.485Z,24
2016-11-20T11:11:06.430Z,24
2016-11-20T11:12:06.354Z,24
2016-11-20T11:13:06.300Z,24
2016-11-20T11:14:06.238Z,20
2016-11-20T11:15:06.172Z,24
2016-11-20T11:16:06.110Z,24
2016-11-20T11:17:06.058Z,28
2016-11-20T11:18:05.982Z,28
2016-11-20T11:19:05.919Z,28
2016-11-20T11:20:05.861Z,24
2016-11-20T11:21:05.795Z,24
2016-11-20T11:22:05.741Z,24
2016-11-20T11:23:05.680Z,28
2016-11-20T11:24:05.612Z,24
2016-11-20T11:25:05.552Z,24
2016-11-20T11:26:05.482Z,20
2016-11-20T11:27:05.442Z,24
2016-11-20T11:28:05.363Z,20
2016-11-20T11:29:05.302Z,20
2016-11-20T11:30:05.237Z,20
2016-11-20T11:31:05.174Z,16
2016-11-20T11:32:05.128Z,16
2016-11-20T11:33:05.054Z,16
2016-11-20T11:34:04.993Z,16
2016-11-20T11:35:04.932Z,16
2016-11-20T11:36:04.869Z,16
2016-11-20T11:37:04.807Z,16
2016-11-20T11:38:04.743Z,16
2016-11-20T11:39:04.697Z,16
2016-11-20T11:40:04.619Z,16
2016-11-20T11:41:04.560Z,16
2016-11-20T11:42:04.500Z,16
2016-11-20T11:43:04.437Z,16
2016-11-20T11:44:04.377Z,20
2016-11-20T11:45:04.634Z,20
2016-11-20T11:46:04.249Z,20
2016-11-20T11:47:04.186Z,16
2016-11-20T11:48:04.123Z,16
2016-11-20T11:49:04.066Z,16
2016-11-20T11:50:04.005Z,16
2016-11-20T11:51:03.943Z,16
2016-11-20T11:52:03.881Z,16
2016-11-20T11:53:03.835Z,16
2016-11-20T11:54:03.756Z,16
2016-11-20T11:55:03.723Z,16
2016-11-20T11:56:03.629Z,16
2016-11-20T11:57:03.566Z,16
2016-11-20T11:58:03.505Z,16
2016-11-20T11:59:03.445Z,16
2016-11-20T12:00:03.381Z,16
2016-11-20T12:01:03.322Z,16
2016-11-20T12:02:03.264Z,16
2016-11-20T12:03:03.197Z,16
2016-11-20T12:04:03.134Z,16
2016-11-20T12:05:03.071Z,16
2016-11-20T12:06:03.343Z,16
2016-11-20T12:07:02.950Z,12
2016-11-20T12:08:02.882Z,12
2016-11-20T12:09:02.855Z,12
2016-11-20T12:10:02.761Z,16
2016-11-20T12:11:02.699Z,12
2016-11-20T12:12:02.637Z,16
2016-11-20T12:13:02.575Z,12
2016-11-20T12:14:02.513Z,12
2016-11-20T12:15:02.456Z,12
2016-11-20T12:16:02.391Z,12
2016-11-20T12:17:02.326Z,16
2016-11-20T12:18:02.270Z,12
2016-11-20T12:19:02.203Z,12
2016-11-20T12:20:02.149Z,16
2016-11-20T12:21:02.078Z,12
2016-11-20T12:22:02.040Z,12
2016-11-20T12:23:01.952Z,12
2016-11-20T12:24:01.891Z,12
2016-11-20T12:25:01.836Z,12
2016-11-20T12:26:01.772Z,12
2016-11-20T12:27:01.707Z,12
2016-11-20T12:28:01.650Z,12
2016-11-20T12:29:01.588Z,12
2016-11-20T12:30:01.536Z,16
2016-11-20T12:31:01.458Z,12
2016-11-20T12:32:01.396Z,12
2016-11-20T12:33:01.333Z,16
2016-11-20T12:34:01.270Z,16
2016-11-20T12:35:01.213Z,12
2016-11-20T12:36:01.152Z,12
2016-11-20T12:37:01.094Z,12
2016-11-20T12:38:01.023Z,12
2016-11-20T12:39:00.965Z,12
2016-11-20T12:40:00.915Z,16
2016-11-20T12:41:00.842Z,12
2016-11-20T12:42:00.780Z,12
2016-11-20T12:43:00.732Z,12
2016-11-20T12:44:00.655Z,12
2016-11-20T12:45:00.598Z,12
2016-11-20T12:46:00.537Z,12
2016-11-20T12:47:00.478Z,8
2016-11-20T12:48:00.410Z,8
2016-11-20T12:49:00.349Z,8
2016-11-20T12:50:00.289Z,8
2016-11-20T12:51:00.226Z,8
2016-11-20T12:52:00.161Z,8
2016-11-20T12:53:00.097Z,8
2016-11-20T12:54:00.062Z,8
2016-11-20T12:54:59.971Z,8
2016-11-20T12:55:59.911Z,8
2016-11-20T12:57:00.168Z,8
2016-11-20T12:57:59.784Z,8
2016-11-20T12:58:59.727Z,8
2016-11-20T12:59:59.666Z,8
2016-11-20T13:00:59.598Z,8
2016-11-20T13:01:59.535Z,8
2016-11-20T13:02:59.478Z,8
2016-11-20T13:03:59.411Z,12
2016-11-20T13:04:59.355Z,12
2016-11-20T13:05:59.291Z,12
2016-11-20T13:06:59.224Z,8
2016-11-20T13:07:59.163Z,8
2016-11-20T13:08:59.103Z,8
2016-11-20T13:09:59.042Z,8
2016-11-20T13:10:58.977Z,8
2016-11-20T13:11:59.261Z,8
2016-11-20T13:12:58.851Z,8
2016-11-20T13:13:58.794Z,8
2016-11-20T13:14:58.730Z,8
2016-11-20T13:15:58.666Z,8
2016-11-20T13:16:58.604Z,4
2016-11-20T13:17:58.547Z,4
2016-11-20T13:18:58.480Z,4
2016-11-20T13:19:58.418Z,4
2016-11-20T13:20:58.359Z,4
2016-11-20T13:21:58.294Z,4
2016-11-20T13:22:58.231Z,8
2016-11-20T13:23:58.176Z,8
2016-11-20T13:24:58.111Z,8
2016-11-20T13:25:59.246Z,8
2016-11-20T13:26:57.987Z,8
2016-11-20T13:27:57.919Z,8
2016-11-20T13:28:57.863Z,8
2016-11-20T13:29:57.797Z,8
2016-11-20T13:30:57.737Z,4
2016-11-20T13:31:57.671Z,8
2016-11-20T13:32:57.613Z,8
2016-11-20T13:33:57.546Z,12
2016-11-20T13:34:57.486Z,12
2016-11-20T13:35:57.424Z,12
2016-11-20T13:36:57.714Z,12
2016-11-20T13:37:57.301Z,12
2016-11-20T13:38:57.236Z,12
2016-11-20T13:39:57.175Z,8
2016-11-20T13:40:57.113Z,12
2016-11-20T13:41:57.050Z,12
2016-11-20T13:42:56.987Z,12
2016-11-20T13:43:56.928Z,8
2016-11-20T13:44:56.865Z,8
2016-11-20T13:45:56.802Z,8
2016-11-20T13:46:56.744Z,8
2016-11-20T13:47:56.678Z,8
2016-11-20T13:48:56.612Z,8
2016-11-20T13:49:56.558Z,4
2016-11-20T13:50:56.491Z,8
2016-11-20T13:51:56.437Z,8
2016-11-20T13:52:56.369Z,8
2016-11-20T13:53:56.305Z,8
2016-11-20T13:54:56.247Z,4
2016-11-20T13:55:56.182Z,4
2016-11-20T13:56:56.119Z,8
2016-11-20T13:57:56.054Z,8
2016-11-20T13:58:55.998Z,8
2016-11-20T13:59:55.932Z,8
2016-11-20T14:00:55.871Z,8
2016-11-20T14:01:55.810Z,8
2016-11-20T14:02:55.747Z,8
2016-11-20T14:03:55.685Z,8
2016-11-20T14:04:55.624Z,8
2016-11-20T14:05:55.561Z,4
2016-11-20T14:06:55.534Z,4
2016-11-20T14:07:55.436Z,4
2016-11-20T14:08:55.375Z,4
2016-11-20T14:09:55.314Z,4
2016-11-20T14:10:55.251Z,4
2016-11-20T14:11:55.189Z,4
2016-11-20T14:12:55.125Z,4
2016-11-20T14:13:55.065Z,4
2016-11-20T14:14:55.002Z,4
2016-11-20T14:15:54.943Z,4
2016-11-20T14:16:55.152Z,4
2016-11-20T14:17:54.818Z,4
2016-11-20T14:18:55.085Z,4
2016-11-20T14:19:54.691Z,4
2016-11-20T14:20:54.635Z,4
2016-11-20T14:21:54.566Z,4
2016-11-20T14:22:54.504Z,4
2016-11-20T14:23:54.452Z,4
2016-11-20T14:24:54.383Z,4
2016-11-20T14:25:54.323Z,4
2016-11-20T14:26:54.259Z,0
2016-11-20T14:27:54.203Z,0
2016-11-20T14:28:54.136Z,0
2016-11-20T14:29:54.075Z,4
2016-11-20T14:30:54.013Z,4
2016-11-20T14:31:53.982Z,4
2016-11-20T14:32:53.889Z,4
2016-11-20T14:33:53.823Z,4
2016-11-20T14:34:53.767Z,4